Pagrindinis puslapis
METAR-TAF:

METAR-TAF

Oro uostai :

Estešundas-Frösön, Švedija

platuma: 63-11N, ilguma: 014-30E, Aukštis: 376 m

Dabartinis oras

Ataskaita buvo paskelbta 18 minutes, ne 13:20 UTC
Vėjas 5 kt iš Šiaurės Vakarų, svyruoja nuo Vakarų/Šiaurės Vakarų ir Šiaurės
Temperatūra -1°C
Drėgmė 64%
Slėgis 999 hPa
Matomumas 10 km arba daugiau
nėra debesų žemiau 1500 m ir nėra kamuolinių lietaus debesų

METAR: ESNZ 191320Z 32005KT 290V350 CAVOK M01/M07 Q0999

Laikas: 14:38 (13:38 UTC)

Prognozė

Ataskaita buvo paskelbta 2 valandos ir 8 minutes, ne 11:30 UTC
Prognozė galioja nuo 19 metu 12 UTC su 19 metu 21 UTC
Vėjas 4 kt iš Šiaurės Vakarų
Matomumas 10 km arba daugiau
nėra debesų žemiau 1500 m ir nėra kamuolinių lietaus debesų

TAF: ESNZ 191130Z 1912/1921 32004KT CAVOK

Orai ataskaitas ir orų prognozės (METAR, TAF).

turimą stotys yra geltonos ir raudonos taškus žemėlapyje.

Perkelti pele per norėdami pamatyti stoties vardą.

Tada spustelėkite, norėdami matyti oro stebėjimo ir prognozės.

Norėdami pakeisti žemėlapį: spustelėkite ant žalios mygtukų su juodo kryžiaus žemyn,; žalią mygtuką su brūkšneliu, jei norite nutolinti; arba žalių rodyklių gretimoms žemėlapius.


METAR-TAF: